Terminal Aerodrome Forecast
Issued by NWS

Home | Current Version | Previous Version | Text Only | Print | Product List | Glossary On
Versions: 1 2 3 4 5 6 7 8 9 10 11 12 13 14 15 16 17
000
FTUS43 KGRR 022300
TAFJXN
TAF
KJXN 022340Z 0300/0324 25008KT P6SM SCT150
     FM030600 15007KT P6SM OVC100
     FM031500 15015G23KT 1SM -SN BR OVC012
     FM031700 16017G25KT 1SM -FZRASN BR OVC009=

USA.gov is the U.S. government's official web portal to all federal, state and local government web resources and services.